LFQQ 181530Z AUTO 26006KT 230V300 CAVOK 28/14 Q1013 TEMPO 4000 SHRA BKN040TCU

ElémentsDécodage
LFQQ Station météo située sur l'aérodrome de LILLE Lesquin
181530Z émis le 18 du mois à 15h30 UTC
AUTO Bulletin édité par un automate
26006KT vent du 260°, 06 noeuds
230V300 vent de direction variable entre 230° et 300°
CAVOK Ceiling And Visibility OK
- Visibilité de 10 Km ou plus
- Pas de nuage au-dessous de 1500m ou au-dessous de l'altitude minimale du secteur la plus élevée (si>1500m) et absence de CB
- pas de temps présent significatif
28/14 température 28°C, point de rosée 14°C
 soit une humidité relative de 42%
Q1013 la pression au niveau de la mer (QNH) est de 1013 hPa
TEMPO fluctuation temporaire prévue
4000 visibilité horizontale de 4000 mètres
SHRA averse(s) de pluie
BKN040TCU nuages morcelés (5/8 à 7/8) à 4000 pieds
 présence de cumulus congestus